createdAt,value
2023-04-07T00:00:53.156Z,70.03
2023-04-07T00:01:53.525Z,70.13
2023-04-07T00:02:53.898Z,70.37
2023-04-07T00:03:54.676Z,70.48
2023-04-07T00:04:54.304Z,70.68
2023-04-07T00:05:54.560Z,70.79
2023-04-07T00:06:54.840Z,70.89
2023-04-07T00:07:56.837Z,71.00
2023-04-07T00:08:55.534Z,70.89
2023-04-07T00:09:55.754Z,70.89
2023-04-07T00:10:56.069Z,70.89
2023-04-07T00:11:56.384Z,71.00
2023-04-07T00:12:56.728Z,70.97
2023-04-07T00:13:57.145Z,70.97
2023-04-07T00:14:57.366Z,70.97
2023-04-07T00:15:57.602Z,71.10
2023-04-07T00:16:57.929Z,71.10
2023-04-07T00:17:58.316Z,71.07
2023-04-07T00:18:58.495Z,70.89
2023-04-07T00:19:58.953Z,70.79
2023-04-07T00:20:59.134Z,70.68
2023-04-07T00:21:59.459Z,70.79
2023-04-07T00:22:59.788Z,70.89
2023-04-07T00:24:00.131Z,71.00
2023-04-07T00:25:00.430Z,71.10
2023-04-07T00:26:00.769Z,71.20
2023-04-07T00:27:01.055Z,71.31
2023-04-07T00:28:01.374Z,71.41
2023-04-07T00:29:01.585Z,71.41
2023-04-07T00:30:01.914Z,70.89
2023-04-07T00:31:02.259Z,70.89
2023-04-07T00:32:02.565Z,70.79
2023-04-07T00:33:02.904Z,70.68
2023-04-07T00:34:03.205Z,70.79
2023-04-07T00:35:03.552Z,70.68
2023-04-07T00:36:03.845Z,70.79
2023-04-07T00:37:04.215Z,70.89
2023-04-07T00:38:04.534Z,70.89
2023-04-07T00:39:04.829Z,70.79
2023-04-07T00:40:05.177Z,70.79
2023-04-07T00:41:05.491Z,70.58
2023-04-07T00:42:05.713Z,70.37
2023-04-07T00:43:06.035Z,70.48
2023-04-07T00:44:06.340Z,70.58
2023-04-07T00:45:06.650Z,70.58
2023-04-07T00:46:07.004Z,70.68
2023-04-07T00:47:07.326Z,70.27
2023-04-07T00:48:07.565Z,70.17
2023-04-07T00:49:09.318Z,70.17
2023-04-07T00:50:08.010Z,70.40
2023-04-07T00:51:08.375Z,70.30
2023-04-07T00:52:08.598Z,70.30
2023-04-07T00:53:08.911Z,70.40
2023-04-07T00:54:09.203Z,70.51
2023-04-07T00:55:09.508Z,70.40
2023-04-07T00:56:09.874Z,70.61
2023-04-07T00:57:10.092Z,70.82
2023-04-07T00:58:10.429Z,71.13
2023-04-07T00:59:10.750Z,71.13
2023-04-07T01:00:11.064Z,71.34
2023-04-07T01:01:11.431Z,71.44
2023-04-07T01:02:11.713Z,71.65
2023-04-07T01:03:12.071Z,72.07
2023-04-07T01:04:12.272Z,72.07
2023-04-07T01:05:12.584Z,71.93
2023-04-07T01:06:12.782Z,71.93
2023-04-07T01:07:13.094Z,71.83
2023-04-07T01:08:13.503Z,71.72
2023-04-07T01:09:13.663Z,71.41
2023-04-07T01:10:13.995Z,71.00
2023-04-07T01:11:14.324Z,70.89
2023-04-07T01:12:14.674Z,70.89
2023-04-07T01:13:14.995Z,70.79
2023-04-07T01:14:15.219Z,70.06
2023-04-07T01:15:15.568Z,69.74
2023-04-07T01:16:15.884Z,69.85
2023-04-07T01:17:16.169Z,70.06
2023-04-07T01:18:16.503Z,70.17
2023-04-07T01:19:16.810Z,70.17
2023-04-07T01:20:17.125Z,70.27
2023-04-07T01:21:17.457Z,70.17
2023-04-07T01:22:17.793Z,70.17
2023-04-07T01:23:18.102Z,69.96
2023-04-07T01:24:18.481Z,70.06
2023-04-07T01:25:18.667Z,70.17
2023-04-07T01:26:18.978Z,70.17
2023-04-07T01:27:19.292Z,70.23
2023-04-07T01:28:19.667Z,70.34
2023-04-07T01:29:19.849Z,70.34
2023-04-07T01:30:20.162Z,70.34
2023-04-07T01:31:20.517Z,70.34
2023-04-07T01:32:20.848Z,70.23
2023-04-07T01:33:21.153Z,70.03
2023-04-07T01:34:21.474Z,70.03
2023-04-07T01:35:21.853Z,70.03
2023-04-07T01:36:22.019Z,70.13
2023-04-07T01:37:22.381Z,70.23
2023-04-07T01:38:22.619Z,70.23
2023-04-07T01:39:22.814Z,69.82
2023-04-07T01:40:23.198Z,69.61
2023-04-07T01:41:23.368Z,69.61
2023-04-07T01:42:23.684Z,69.51
2023-04-07T01:43:24.059Z,69.40
2023-04-07T01:44:24.384Z,69.30
2023-04-07T01:45:24.694Z,69.20
2023-04-07T01:46:25.027Z,69.30
2023-04-07T01:47:25.538Z,69.40
2023-04-07T01:48:25.650Z,69.40
2023-04-07T01:49:26.038Z,69.51
2023-04-07T01:50:26.201Z,69.30
2023-04-07T01:51:26.522Z,69.40
2023-04-07T01:52:26.854Z,69.30
2023-04-07T01:53:27.099Z,69.09
2023-04-07T01:54:27.311Z,68.99
2023-04-07T01:55:27.625Z,69.30
2023-04-07T01:56:27.961Z,69.40
2023-04-07T01:57:28.283Z,69.40
2023-04-07T01:58:28.680Z,69.40
2023-04-07T01:59:28.839Z,69.20
2023-04-07T02:00:29.131Z,69.09
2023-04-07T02:01:29.780Z,69.12
2023-04-07T02:02:29.936Z,69.43
2023-04-07T02:03:30.018Z,69.74
2023-04-07T02:04:30.252Z,70.06
2023-04-07T02:05:30.571Z,70.17
2023-04-07T02:06:30.914Z,70.17
2023-04-07T02:07:31.121Z,70.20
2023-04-07T02:08:32.318Z,70.30
2023-04-07T02:09:31.722Z,70.30
2023-04-07T02:10:32.046Z,70.40
2023-04-07T02:11:32.371Z,70.27
2023-04-07T02:12:32.707Z,70.40
2023-04-07T02:13:32.923Z,70.40
2023-04-07T02:14:33.294Z,70.30
2023-04-07T02:15:33.496Z,70.30
2023-04-07T02:16:33.862Z,70.09
2023-04-07T02:17:34.073Z,70.09
2023-04-07T02:18:34.390Z,70.20
2023-04-07T02:19:34.746Z,70.09
2023-04-07T02:20:35.066Z,70.30
2023-04-07T02:21:35.293Z,70.61
2023-04-07T02:22:35.584Z,70.82
2023-04-07T02:23:36.014Z,70.92
2023-04-07T02:24:36.177Z,70.92
2023-04-07T02:25:36.537Z,70.92
2023-04-07T02:26:36.748Z,71.03
2023-04-07T02:27:37.069Z,71.13
2023-04-07T02:28:37.434Z,71.10
2023-04-07T02:29:37.602Z,71.10
2023-04-07T02:30:37.959Z,70.79
2023-04-07T02:31:38.190Z,70.68
2023-04-07T02:32:38.615Z,70.89
2023-04-07T02:33:38.791Z,71.00
2023-04-07T02:34:39.154Z,71.10
2023-04-07T02:35:39.330Z,71.00
2023-04-07T02:36:39.713Z,70.89
2023-04-07T02:37:40.009Z,70.79
2023-04-07T02:38:40.327Z,70.65
2023-04-07T02:39:40.658Z,70.58
2023-04-07T02:40:40.958Z,70.44
2023-04-07T02:41:41.310Z,70.44
2023-04-07T02:42:41.677Z,70.34
2023-04-07T02:43:41.859Z,70.34
2023-04-07T02:44:42.196Z,70.48
2023-04-07T02:45:42.586Z,70.44
2023-04-07T02:46:42.821Z,70.48
2023-04-07T02:47:43.121Z,70.17
2023-04-07T02:48:43.269Z,70.27
2023-04-07T02:49:43.635Z,70.27
2023-04-07T02:50:43.972Z,70.48
2023-04-07T02:51:44.163Z,70.48
2023-04-07T02:52:44.517Z,70.48
2023-04-07T02:53:44.758Z,70.27
2023-04-07T02:54:45.002Z,70.27
2023-04-07T02:55:45.242Z,70.23
2023-04-07T02:56:45.473Z,70.23
2023-04-07T02:57:45.661Z,70.27
2023-04-07T02:58:45.989Z,70.27
2023-04-07T02:59:46.387Z,70.27
2023-04-07T03:00:46.877Z,70.17
2023-04-07T03:01:46.993Z,70.06
2023-04-07T03:02:47.414Z,70.06
2023-04-07T03:03:47.580Z,70.17
2023-04-07T03:04:47.818Z,70.06
2023-04-07T03:05:48.132Z,70.27
2023-04-07T03:06:48.466Z,70.37
2023-04-07T03:07:48.813Z,70.48
2023-04-07T03:08:49.117Z,70.58
2023-04-07T03:09:49.472Z,70.68
2023-04-07T03:10:49.772Z,70.48
2023-04-07T03:11:50.116Z,70.61
2023-04-07T03:12:50.490Z,70.61
2023-04-07T03:13:50.957Z,70.72
2023-04-07T03:14:50.982Z,70.72
2023-04-07T03:15:51.317Z,70.72
2023-04-07T03:16:51.697Z,70.82
2023-04-07T03:17:52.047Z,71.03
2023-04-07T03:18:52.195Z,71.23
2023-04-07T03:19:52.541Z,70.82
2023-04-07T03:20:52.925Z,71.03
2023-04-07T03:21:53.098Z,71.23
2023-04-07T03:22:53.441Z,71.58
2023-04-07T03:23:54.045Z,71.58
2023-04-07T03:24:54.101Z,71.69
2023-04-07T03:25:54.436Z,71.86
2023-04-07T03:26:54.772Z,71.86
2023-04-07T03:27:55.100Z,71.86
2023-04-07T03:28:55.420Z,71.75
2023-04-07T03:29:55.726Z,71.97
2023-04-07T03:30:56.103Z,72.17
2023-04-07T03:31:56.374Z,72.28
2023-04-07T03:32:56.749Z,72.17
2023-04-07T03:33:57.066Z,72.17
2023-04-07T03:34:57.308Z,72.28
2023-04-07T03:35:57.535Z,72.17
2023-04-07T03:36:57.833Z,72.07
2023-04-07T03:37:58.197Z,71.97
2023-04-07T03:38:58.382Z,71.97
2023-04-07T03:39:58.714Z,71.83
2023-04-07T03:40:59.040Z,71.83
2023-04-07T03:42:07.098Z,71.51
2023-04-07T03:42:59.663Z,71.41
2023-04-07T03:43:59.946Z,71.10
2023-04-07T03:45:00.264Z,71.10
2023-04-07T03:46:00.630Z,71.20
2023-04-07T03:47:00.909Z,71.31
2023-04-07T03:48:01.240Z,71.41
2023-04-07T03:49:01.528Z,71.31
2023-04-07T03:50:01.847Z,71.31
2023-04-07T03:51:02.240Z,71.62
2023-04-07T03:52:02.414Z,71.62
2023-04-07T03:53:02.698Z,71.72
2023-04-07T03:54:02.980Z,71.93
2023-04-07T03:55:03.285Z,71.51
2023-04-07T03:56:03.607Z,71.31
2023-04-07T03:57:03.921Z,71.00
2023-04-07T03:58:04.236Z,70.89
2023-04-07T03:59:04.545Z,70.68
2023-04-07T04:00:04.851Z,70.79
2023-04-07T04:01:05.177Z,70.72
2023-04-07T04:02:05.482Z,70.72
2023-04-07T04:03:05.848Z,70.72
2023-04-07T04:04:06.758Z,70.82
2023-04-07T04:05:06.579Z,71.03
2023-04-07T04:06:06.674Z,71.23
2023-04-07T04:07:07.027Z,71.44
2023-04-07T04:08:07.396Z,71.44
2023-04-07T04:09:07.700Z,71.75
2023-04-07T04:10:08.002Z,72.07
2023-04-07T04:11:08.313Z,71.86
2023-04-07T04:12:08.630Z,71.75
2023-04-07T04:13:08.945Z,71.75
2023-04-07T04:14:09.282Z,71.75
2023-04-07T04:15:09.571Z,71.97
2023-04-07T04:16:10.063Z,71.97
2023-04-07T04:17:10.230Z,72.17
2023-04-07T04:18:10.593Z,72.38
2023-04-07T04:19:10.787Z,72.07
2023-04-07T04:20:11.133Z,72.07
2023-04-07T04:21:11.454Z,72.38
2023-04-07T04:22:11.775Z,72.38
2023-04-07T04:23:12.132Z,72.28
2023-04-07T04:24:12.349Z,72.28
2023-04-07T04:25:12.702Z,72.38
2023-04-07T04:26:13.022Z,72.59
2023-04-07T04:27:13.269Z,72.59
2023-04-07T04:28:13.629Z,72.59
2023-04-07T04:29:13.831Z,72.80
2023-04-07T04:30:14.171Z,72.80
2023-04-07T04:31:14.430Z,72.59
2023-04-07T04:32:14.755Z,72.59
2023-04-07T04:33:14.971Z,72.83
2023-04-07T04:34:15.318Z,73.03
2023-04-07T04:35:15.539Z,73.14
2023-04-07T04:36:15.824Z,73.25
2023-04-07T04:37:16.015Z,73.21
2023-04-07T04:38:16.377Z,73.11
2023-04-07T04:39:16.579Z,73.00
2023-04-07T04:40:16.923Z,73.21
2023-04-07T04:41:17.258Z,73.21
2023-04-07T04:42:17.608Z,73.21
2023-04-07T04:43:17.940Z,73.00
2023-04-07T04:44:18.293Z,72.90
2023-04-07T04:45:18.624Z,73.00
2023-04-07T04:46:18.961Z,73.11
2023-04-07T04:47:19.249Z,73.00
2023-04-07T04:48:19.488Z,73.00
2023-04-07T04:49:19.746Z,72.86
2023-04-07T04:50:19.963Z,72.66
2023-04-07T04:51:20.278Z,72.55
2023-04-07T04:52:20.649Z,72.66
2023-04-07T04:53:20.858Z,72.66
2023-04-07T04:54:21.085Z,72.45
2023-04-07T04:55:21.456Z,72.34
2023-04-07T04:56:21.741Z,72.24
2023-04-07T04:57:21.966Z,72.24
2023-04-07T04:58:22.243Z,72.14
2023-04-07T04:59:22.489Z,72.24
2023-04-07T05:00:22.785Z,72.34
2023-04-07T05:01:23.001Z,72.45
2023-04-07T05:02:23.388Z,72.34
2023-04-07T05:03:23.652Z,72.14
2023-04-07T05:04:23.897Z,72.14
2023-04-07T05:05:24.049Z,71.83
2023-04-07T05:06:24.290Z,72.03
2023-04-07T05:07:24.565Z,72.14
2023-04-07T05:08:24.803Z,72.24
2023-04-07T05:09:25.057Z,72.34
2023-04-07T05:10:25.317Z,72.34
2023-04-07T05:11:25.615Z,72.14
2023-04-07T05:12:25.857Z,72.14
2023-04-07T05:13:26.145Z,72.34
2023-04-07T05:14:26.375Z,72.59
2023-04-07T05:15:26.633Z,72.69
2023-04-07T05:16:26.873Z,72.80
2023-04-07T05:17:27.153Z,72.69
2023-04-07T05:18:27.395Z,72.90
2023-04-07T05:19:27.686Z,73.00
2023-04-07T05:20:27.919Z,73.21
2023-04-07T05:21:28.165Z,73.11
2023-04-07T05:22:28.458Z,72.80
2023-04-07T05:23:28.683Z,73.11
2023-04-07T05:24:28.918Z,73.32
2023-04-07T05:25:29.162Z,73.32
2023-04-07T05:26:29.410Z,73.21
2023-04-07T05:27:29.935Z,73.11
2023-04-07T05:28:29.876Z,72.97
2023-04-07T05:29:30.122Z,72.55
2023-04-07T05:30:30.375Z,72.69
2023-04-07T05:31:30.626Z,72.69
2023-04-07T05:32:30.902Z,72.69
2023-04-07T05:33:31.140Z,72.80
2023-04-07T05:34:31.359Z,72.80
2023-04-07T05:35:31.602Z,73.00
2023-04-07T05:36:31.950Z,73.11
2023-04-07T05:37:32.165Z,73.11
2023-04-07T05:38:32.424Z,73.32
2023-04-07T05:39:32.648Z,73.63
2023-04-07T05:40:33.712Z,73.63
2023-04-07T05:41:33.267Z,73.42
2023-04-07T05:42:33.535Z,73.21
2023-04-07T05:43:33.769Z,73.42
2023-04-07T05:44:34.015Z,73.63
2023-04-07T05:45:34.301Z,73.87
2023-04-07T05:46:34.553Z,73.94
2023-04-07T05:47:34.874Z,73.83
2023-04-07T05:48:35.112Z,73.63
2023-04-07T05:49:35.369Z,73.63
2023-04-07T05:50:35.623Z,73.63
2023-04-07T05:51:35.887Z,73.94
2023-04-07T05:52:36.138Z,73.94
2023-04-07T05:53:36.410Z,73.94
2023-04-07T05:54:36.633Z,73.83
2023-04-07T05:55:36.990Z,73.52
2023-04-07T05:56:37.224Z,73.52
2023-04-07T05:57:37.422Z,73.63
2023-04-07T05:58:37.722Z,73.73
2023-04-07T05:59:38.040Z,73.94
2023-04-07T06:00:38.290Z,74.15
2023-04-07T06:01:38.602Z,74.04
2023-04-07T06:02:38.964Z,74.11
2023-04-07T06:03:39.237Z,74.22
2023-04-07T06:04:39.573Z,74.01
2023-04-07T06:05:39.846Z,74.11
2023-04-07T06:06:40.087Z,73.77
2023-04-07T06:07:40.334Z,73.46
2023-04-07T06:08:40.600Z,73.35
2023-04-07T06:09:40.812Z,73.25
2023-04-07T06:10:41.056Z,73.25
2023-04-07T06:11:41.297Z,73.11
2023-04-07T06:12:41.542Z,73.22
2023-04-07T06:13:41.783Z,73.11
2023-04-07T06:14:41.992Z,73.32
2023-04-07T06:15:42.236Z,73.11
2023-04-07T06:16:42.480Z,73.32
2023-04-07T06:17:42.730Z,73.32
2023-04-07T06:18:42.946Z,73.14
2023-04-07T06:19:43.164Z,73.56
2023-04-07T06:20:43.421Z,73.77
2023-04-07T06:21:43.633Z,73.66
2023-04-07T06:22:43.897Z,73.35
2023-04-07T06:23:44.148Z,73.35
2023-04-07T06:24:44.371Z,73.46
2023-04-07T06:25:44.611Z,73.66
2023-04-07T06:26:44.840Z,73.87
2023-04-07T06:27:45.081Z,74.22
2023-04-07T06:28:45.358Z,74.53
2023-04-07T06:29:45.565Z,74.74
2023-04-07T06:30:45.820Z,74.74
2023-04-07T06:31:46.019Z,74.84
2023-04-07T06:32:46.286Z,74.84
2023-04-07T06:33:46.958Z,74.95
2023-04-07T06:34:46.845Z,74.95
2023-04-07T06:35:47.075Z,74.91
2023-04-07T06:36:47.331Z,75.01
2023-04-07T06:37:47.575Z,75.12
2023-04-07T06:38:47.824Z,74.91
2023-04-07T06:39:48.046Z,74.91
2023-04-07T06:40:48.425Z,74.88
2023-04-07T06:41:48.665Z,74.77
2023-04-07T06:42:48.941Z,74.67
2023-04-07T06:43:49.398Z,74.36
2023-04-07T06:44:49.429Z,74.26
2023-04-07T06:45:49.823Z,74.26
2023-04-07T06:46:50.037Z,74.46
2023-04-07T06:47:50.338Z,74.57
2023-04-07T06:48:50.539Z,74.46
2023-04-07T06:49:51.167Z,74.53
2023-04-07T06:50:51.110Z,74.43
2023-04-07T06:51:51.370Z,74.53
2023-04-07T06:52:51.622Z,74.53
2023-04-07T06:53:51.859Z,74.32
2023-04-07T06:54:52.082Z,74.43
2023-04-07T06:55:52.451Z,74.53
2023-04-07T06:56:53.649Z,74.77
2023-04-07T06:57:52.995Z,74.88
2023-04-07T06:58:53.209Z,74.88
2023-04-07T06:59:53.577Z,75.09
2023-04-07T07:00:53.801Z,75.29
2023-04-07T07:01:54.125Z,75.29
2023-04-07T07:02:54.507Z,75.29
2023-04-07T07:03:54.726Z,75.50
2023-04-07T07:04:54.847Z,75.60
2023-04-07T07:05:55.087Z,75.92
2023-04-07T07:06:55.363Z,75.92
2023-04-07T07:07:55.582Z,76.02
2023-04-07T07:08:55.826Z,75.92
2023-04-07T07:09:56.082Z,76.02
2023-04-07T07:10:56.306Z,75.92
2023-04-07T07:11:56.535Z,76.02
2023-04-07T07:12:56.777Z,76.12
2023-04-07T07:13:57.005Z,76.23
2023-04-07T07:14:57.255Z,76.29
2023-04-07T07:15:57.529Z,76.09
2023-04-07T07:16:57.731Z,76.19
2023-04-07T07:17:57.997Z,76.40
2023-04-07T07:18:58.203Z,76.40
2023-04-07T07:19:58.451Z,76.61
2023-04-07T07:20:58.676Z,76.71
2023-04-07T07:21:58.904Z,76.29
2023-04-07T07:22:59.153Z,76.29
2023-04-07T07:23:59.411Z,76.40
2023-04-07T07:24:59.637Z,76.19
2023-04-07T07:25:59.886Z,76.40
2023-04-07T07:27:00.146Z,76.40
2023-04-07T07:28:00.392Z,76.50
2023-04-07T07:29:00.596Z,76.71
2023-04-07T07:30:00.836Z,76.71
2023-04-07T07:31:01.130Z,76.71
2023-04-07T07:32:01.381Z,76.81
2023-04-07T07:33:01.667Z,76.68
2023-04-07T07:34:01.889Z,76.68
2023-04-07T07:35:02.123Z,76.68
2023-04-07T07:36:02.336Z,76.68
2023-04-07T07:37:02.871Z,76.47
2023-04-07T07:38:02.983Z,76.23
2023-04-07T07:39:03.210Z,76.26
2023-04-07T07:40:03.455Z,76.47
2023-04-07T07:41:03.689Z,76.57
2023-04-07T07:42:03.932Z,76.75
2023-04-07T07:43:04.193Z,76.75
2023-04-07T07:44:04.413Z,76.54
2023-04-07T07:45:04.640Z,76.54
2023-04-07T07:46:04.907Z,76.64
2023-04-07T07:47:05.169Z,76.54
2023-04-07T07:48:05.415Z,76.43
2023-04-07T07:49:05.628Z,76.54
2023-04-07T07:50:05.989Z,76.43
2023-04-07T07:51:06.250Z,76.64
2023-04-07T07:52:07.055Z,76.64
2023-04-07T07:53:06.816Z,76.75
2023-04-07T07:54:07.046Z,76.85
2023-04-07T07:55:07.274Z,77.06
2023-04-07T07:56:07.624Z,77.37
2023-04-07T07:57:07.838Z,77.58
2023-04-07T07:58:08.103Z,77.37
2023-04-07T07:59:08.327Z,77.47
2023-04-07T08:00:08.670Z,77.58
2023-04-07T08:01:09.033Z,77.68
2023-04-07T08:02:09.435Z,77.78
2023-04-07T08:03:09.651Z,77.99
2023-04-07T08:04:10.038Z,78.09
2023-04-07T08:05:10.101Z,78.16
2023-04-07T08:06:10.453Z,78.06
2023-04-07T08:07:10.683Z,77.95
2023-04-07T08:08:10.924Z,78.06
2023-04-07T08:09:11.148Z,78.27
2023-04-07T08:10:12.194Z,78.27
2023-04-07T08:11:11.727Z,78.27
2023-04-07T08:12:11.930Z,78.37
2023-04-07T08:13:12.296Z,78.27
2023-04-07T08:14:12.521Z,78.27
2023-04-07T08:15:12.878Z,78.37
2023-04-07T08:16:13.179Z,78.68
2023-04-07T08:17:13.395Z,78.89
2023-04-07T08:18:14.785Z,78.89
2023-04-07T08:19:13.909Z,78.99
2023-04-07T08:20:14.268Z,79.10
2023-04-07T08:21:14.506Z,79.20
2023-04-07T08:22:14.718Z,79.41
2023-04-07T08:23:15.074Z,79.51
2023-04-07T08:24:15.282Z,79.58
2023-04-07T08:25:15.623Z,79.68
2023-04-07T08:26:15.971Z,79.78
2023-04-07T08:27:16.229Z,79.88
2023-04-07T08:28:16.997Z,79.88
2023-04-07T08:29:16.781Z,79.99
2023-04-07T08:30:17.112Z,80.19
2023-04-07T08:31:17.405Z,80.40
2023-04-07T08:32:17.603Z,80.19
2023-04-07T08:33:17.913Z,80.19
2023-04-07T08:34:18.141Z,80.30
2023-04-07T08:35:18.362Z,80.40
2023-04-07T08:36:18.760Z,80.54
2023-04-07T08:37:18.953Z,80.65
2023-04-07T08:38:19.928Z,80.75
2023-04-07T08:39:19.508Z,80.85
2023-04-07T08:40:19.748Z,81.06
2023-04-07T08:41:20.045Z,81.16
2023-04-07T08:42:21.073Z,81.27
2023-04-07T08:43:20.594Z,81.27
2023-04-07T08:44:20.816Z,81.37
2023-04-07T08:45:21.152Z,81.37
2023-04-07T08:46:21.550Z,81.48
2023-04-07T08:47:21.824Z,81.58
2023-04-07T08:48:22.053Z,81.68
2023-04-07T08:49:22.261Z,81.79
2023-04-07T08:50:23.534Z,81.89
2023-04-07T08:51:22.933Z,81.99
2023-04-07T08:52:23.174Z,82.10
2023-04-07T08:53:23.430Z,82.20
2023-04-07T08:54:23.654Z,82.41
2023-04-07T08:55:23.907Z,82.48
2023-04-07T08:56:24.118Z,82.48
2023-04-07T08:57:24.378Z,82.27
2023-04-07T08:58:25.490Z,82.37
2023-04-07T08:59:24.961Z,82.37
2023-04-07T09:00:25.134Z,82.37
2023-04-07T09:01:25.444Z,82.48
2023-04-07T09:02:25.806Z,82.48
2023-04-07T09:03:25.995Z,82.48
2023-04-07T09:04:26.208Z,82.48
2023-04-07T09:05:26.416Z,82.48
2023-04-07T09:06:26.681Z,82.58
2023-04-07T09:07:26.909Z,82.58
2023-04-07T09:08:27.258Z,82.79
2023-04-07T09:09:27.503Z,82.89
2023-04-07T09:10:27.724Z,82.89
2023-04-07T09:11:28.065Z,82.79
2023-04-07T09:12:28.298Z,82.79
2023-04-07T09:13:28.643Z,82.79
2023-04-07T09:14:28.888Z,82.79
2023-04-07T09:15:29.956Z,83.00
2023-04-07T09:16:29.459Z,83.10
2023-04-07T09:17:29.687Z,83.20
2023-04-07T09:18:29.967Z,83.31
2023-04-07T09:19:30.238Z,83.41
2023-04-07T09:20:30.510Z,83.51
2023-04-07T09:21:30.772Z,83.51
2023-04-07T09:22:31.030Z,83.51
2023-04-07T09:23:31.302Z,83.41
2023-04-07T09:24:31.569Z,83.31
2023-04-07T09:25:31.819Z,83.51
2023-04-07T09:26:32.136Z,83.62
2023-04-07T09:27:32.422Z,83.72
2023-04-07T09:28:32.727Z,83.83
2023-04-07T09:29:32.979Z,83.93
2023-04-07T09:30:33.263Z,84.03
2023-04-07T09:31:33.573Z,83.93
2023-04-07T09:32:33.799Z,83.93
2023-04-07T09:33:34.159Z,83.89
2023-04-07T09:34:34.274Z,83.89
2023-04-07T09:35:34.592Z,84.09
2023-04-07T09:36:34.856Z,84.20
2023-04-07T09:37:35.112Z,84.30
2023-04-07T09:38:35.386Z,84.20
2023-04-07T09:39:35.658Z,84.20
2023-04-07T09:40:36.074Z,84.20
2023-04-07T09:41:36.186Z,84.30
2023-04-07T09:42:36.445Z,84.41
2023-04-07T09:43:36.703Z,84.51
2023-04-07T09:44:36.963Z,84.41
2023-04-07T09:45:37.609Z,84.51
2023-04-07T09:46:37.708Z,84.51
2023-04-07T09:47:37.806Z,84.61
2023-04-07T09:48:38.160Z,84.72
2023-04-07T09:49:38.421Z,84.82
2023-04-07T09:50:39.233Z,84.72
2023-04-07T09:51:38.886Z,84.82
2023-04-07T09:52:39.114Z,85.03
2023-04-07T09:53:39.378Z,85.03
2023-04-07T09:54:39.587Z,84.92
2023-04-07T09:55:42.989Z,84.82
2023-04-07T09:56:40.177Z,84.82
2023-04-07T09:57:40.454Z,84.82
2023-04-07T09:58:40.722Z,84.82
2023-04-07T09:59:40.941Z,84.82
2023-04-07T10:00:41.418Z,84.92
2023-04-07T10:01:41.598Z,84.92
2023-04-07T10:02:41.879Z,84.99
2023-04-07T10:03:42.910Z,85.09
2023-04-07T10:04:42.450Z,85.09
2023-04-07T10:05:42.678Z,84.99
2023-04-07T10:06:42.917Z,84.99
2023-04-07T10:07:43.159Z,85.09
2023-04-07T10:08:43.410Z,85.09
2023-04-07T10:09:43.637Z,85.09
2023-04-07T10:10:43.996Z,84.68
2023-04-07T10:11:44.218Z,84.68
2023-04-07T10:12:44.554Z,84.68
2023-04-07T10:13:44.920Z,84.68
2023-04-07T10:14:45.168Z,84.58
2023-04-07T10:15:45.406Z,84.68
2023-04-07T10:16:45.821Z,84.58
2023-04-07T10:17:46.077Z,84.47
2023-04-07T10:18:46.257Z,84.47
2023-04-07T10:19:46.483Z,84.58
2023-04-07T10:20:46.758Z,84.58
2023-04-07T10:21:46.933Z,84.78
2023-04-07T10:22:47.193Z,84.68
2023-04-07T10:23:47.819Z,84.64
2023-04-07T10:24:47.783Z,84.64
2023-04-07T10:25:48.027Z,84.53
2023-04-07T10:26:48.255Z,84.43
2023-04-07T10:27:48.614Z,84.43
2023-04-07T10:28:48.852Z,84.33
2023-04-07T10:29:49.090Z,84.53
2023-04-07T10:30:49.331Z,84.53
2023-04-07T10:31:49.558Z,84.53
2023-04-07T10:32:49.929Z,84.53
2023-04-07T10:33:50.248Z,84.53
2023-04-07T10:34:50.265Z,84.74
2023-04-07T10:35:50.524Z,84.74
2023-04-07T10:36:50.839Z,84.84
2023-04-07T10:37:51.120Z,85.05
2023-04-07T10:38:51.364Z,85.36
2023-04-07T10:39:51.602Z,85.47
2023-04-07T10:40:51.867Z,85.57
2023-04-07T10:41:52.133Z,85.68
2023-04-07T10:42:52.367Z,85.78
2023-04-07T10:43:52.635Z,85.88
2023-04-07T10:44:52.870Z,85.88
2023-04-07T10:45:53.104Z,85.68
2023-04-07T10:46:53.330Z,85.57
2023-04-07T10:47:53.613Z,85.78
2023-04-07T10:48:54.024Z,85.88
2023-04-07T10:49:54.243Z,85.68
2023-04-07T10:50:54.395Z,85.78
2023-04-07T10:51:54.622Z,85.78
2023-04-07T10:52:54.853Z,85.88
2023-04-07T10:53:55.102Z,86.09
2023-04-07T10:54:55.332Z,86.19
2023-04-07T10:55:55.561Z,86.19
2023-04-07T10:56:55.915Z,86.19
2023-04-07T10:57:56.145Z,85.99
2023-04-07T10:58:56.389Z,85.99
2023-04-07T10:59:58.291Z,85.88
2023-04-07T11:00:56.857Z,85.88
2023-04-07T11:01:57.195Z,85.99
2023-04-07T11:02:57.792Z,86.19
2023-04-07T11:03:57.863Z,86.09
2023-04-07T11:04:57.928Z,85.99
2023-04-07T11:05:58.279Z,85.88
2023-04-07T11:06:58.501Z,85.78
2023-04-07T11:07:58.875Z,85.88
2023-04-07T11:08:59.091Z,85.94
2023-04-07T11:09:59.444Z,86.15
2023-04-07T11:10:59.695Z,85.94
2023-04-07T11:11:59.915Z,85.94
2023-04-07T11:13:00.301Z,85.94
2023-04-07T11:14:00.549Z,85.74
2023-04-07T11:15:00.865Z,85.53
2023-04-07T11:16:01.195Z,85.63
2023-04-07T11:17:01.441Z,85.63
2023-04-07T11:18:01.763Z,85.63
2023-04-07T11:19:01.947Z,85.74
2023-04-07T11:20:02.213Z,85.84
2023-04-07T11:21:02.461Z,85.94
2023-04-07T11:22:02.676Z,85.94
2023-04-07T11:23:03.052Z,86.15
2023-04-07T11:24:03.278Z,86.05
2023-04-07T11:25:03.524Z,85.94
2023-04-07T11:26:03.752Z,85.80
2023-04-07T11:27:03.975Z,85.70
2023-04-07T11:28:04.225Z,85.60
2023-04-07T11:29:05.241Z,85.74
2023-04-07T11:30:04.771Z,85.80
2023-04-07T11:31:05.029Z,85.91
2023-04-07T11:32:05.237Z,85.91
2023-04-07T11:33:05.497Z,85.60
2023-04-07T11:34:05.768Z,85.39
2023-04-07T11:35:06.005Z,85.60
2023-04-07T11:36:06.284Z,85.70
2023-04-07T11:37:06.534Z,85.80
2023-04-07T11:38:06.763Z,85.60
2023-04-07T11:39:07.029Z,85.39
2023-04-07T11:40:07.239Z,85.49
2023-04-07T11:41:07.464Z,85.39
2023-04-07T11:42:07.839Z,85.28
2023-04-07T11:43:08.064Z,85.39
2023-04-07T11:44:08.302Z,85.49
2023-04-07T11:45:08.773Z,85.70
2023-04-07T11:46:08.996Z,85.70
2023-04-07T11:47:09.269Z,85.60
2023-04-07T11:48:09.552Z,85.49
2023-04-07T11:49:09.733Z,85.60
2023-04-07T11:50:10.311Z,85.70
2023-04-07T11:51:10.198Z,85.80
2023-04-07T11:52:10.448Z,85.76
2023-04-07T11:53:10.673Z,85.55
2023-04-07T11:54:10.909Z,85.35
2023-04-07T11:55:11.146Z,85.35
2023-04-07T11:56:11.392Z,85.24
2023-04-07T11:57:11.728Z,85.04
2023-04-07T11:58:11.985Z,85.14
2023-04-07T11:59:12.231Z,85.21
2023-04-07T12:00:12.471Z,85.00
2023-04-07T12:01:12.737Z,85.10
2023-04-07T12:02:13.057Z,85.00
2023-04-07T12:03:13.377Z,84.69
2023-04-07T12:04:13.850Z,84.48
2023-04-07T12:05:13.852Z,84.48
2023-04-07T12:06:14.056Z,84.38
2023-04-07T12:07:14.281Z,84.48
2023-04-07T12:08:14.631Z,84.48
2023-04-07T12:09:14.903Z,84.28
2023-04-07T12:10:15.148Z,84.11
2023-04-07T12:11:15.380Z,84.07
2023-04-07T12:12:15.626Z,84.17
2023-04-07T12:13:15.907Z,84.17
2023-04-07T12:14:16.102Z,84.28
2023-04-07T12:15:16.472Z,84.38
2023-04-07T12:16:16.716Z,84.48
2023-04-07T12:17:16.920Z,84.28
2023-04-07T12:18:17.302Z,84.17
2023-04-07T12:19:17.566Z,84.17
2023-04-07T12:20:17.795Z,84.17
2023-04-07T12:21:18.156Z,84.07
2023-04-07T12:22:18.397Z,84.07
2023-04-07T12:23:18.670Z,84.17
2023-04-07T12:24:18.883Z,84.28
2023-04-07T12:25:19.128Z,83.97
2023-04-07T12:26:21.744Z,84.03
2023-04-07T12:27:21.237Z,83.25
2023-04-07T12:28:20.935Z,83.25
2023-04-07T12:29:20.492Z,83.25
2023-04-07T12:30:20.547Z,83.41
2023-04-07T12:31:20.955Z,83.41
2023-04-07T12:32:21.282Z,83.51
2023-04-07T12:33:21.397Z,83.41
2023-04-07T12:34:21.642Z,83.10
2023-04-07T12:35:22.048Z,82.89
2023-04-07T12:36:22.231Z,82.89
2023-04-07T12:37:22.488Z,83.00
2023-04-07T12:38:22.728Z,83.10
2023-04-07T12:39:24.404Z,83.20
2023-04-07T12:40:23.187Z,83.00
2023-04-07T12:41:23.530Z,82.65
2023-04-07T12:42:24.663Z,82.24
2023-04-07T12:43:24.221Z,82.24
2023-04-07T12:44:24.450Z,82.45
2023-04-07T12:45:24.758Z,82.75
2023-04-07T12:46:25.115Z,82.45
2023-04-07T12:47:25.268Z,82.24
2023-04-07T12:48:25.519Z,82.34
2023-04-07T12:49:25.756Z,82.45
2023-04-07T12:50:26.014Z,82.24
2023-04-07T12:51:26.368Z,82.45
2023-04-07T12:52:26.575Z,82.24
2023-04-07T12:53:26.796Z,82.03
2023-04-07T12:54:27.038Z,81.62
2023-04-07T12:55:27.274Z,81.79
2023-04-07T12:56:27.534Z,81.99